Tavares, Brazil
Current Conditions -  °F | °C
As of 4:00 PM on Thursday 18 Dec 2014 (Local Time) from SBCP Reporting Station
Clear Clear  
Wind Chill: 90°   Ceiling: Unl
Heat Index: 96°   Visibility: 6mi
Dew Point: 72°   Wind: 23mph
Humidity: 55%   Direction: 80°E
Pressure: 29.77"   Gusts: NA
Location:  22.07°S, 41.48°W
Report Text: SBCP 181800Z 08020KT CAVOK 32/22 Q1008
Loading
Personal Weather Stations






























Interactive Weather Map New forecast layout! Learn more

10-Day Weather Forecast

Advertisements
Track Severe Weather on mobile